sensor_id;sensor_type;location;lat;lon;timestamp;temperature;humidity
23475;DHT22;11910;52.086;21.066;2023-10-19T00:00:31;2.60;99.90
23475;DHT22;11910;52.086;21.066;2023-10-19T00:02:59;2.60;99.90
23475;DHT22;11910;52.086;21.066;2023-10-19T00:05:31;2.50;99.90
23475;DHT22;11910;52.086;21.066;2023-10-19T00:08:00;2.50;99.90
23475;DHT22;11910;52.086;21.066;2023-10-19T00:10:31;2.50;99.90
23475;DHT22;11910;52.086;21.066;2023-10-19T00:13:03;2.50;99.90
23475;DHT22;11910;52.086;21.066;2023-10-19T00:15:33;2.50;99.90
23475;DHT22;11910;52.086;21.066;2023-10-19T00:18:03;2.60;99.90
23475;DHT22;11910;52.086;21.066;2023-10-19T00:20:49;2.50;99.90
23475;DHT22;11910;52.086;21.066;2023-10-19T00:23:19;2.50;99.90
23475;DHT22;11910;52.086;21.066;2023-10-19T00:25:54;2.50;99.90
23475;DHT22;11910;52.086;21.066;2023-10-19T00:28:20;2.60;99.90
23475;DHT22;11910;52.086;21.066;2023-10-19T00:30:48;2.60;99.90
23475;DHT22;11910;52.086;21.066;2023-10-19T00:33:15;2.60;99.90
23475;DHT22;11910;52.086;21.066;2023-10-19T00:35:45;2.50;99.90
23475;DHT22;11910;52.086;21.066;2023-10-19T00:38:26;2.50;99.90
23475;DHT22;11910;52.086;21.066;2023-10-19T00:40:52;2.50;99.90
23475;DHT22;11910;52.086;21.066;2023-10-19T00:43:28;2.50;99.90
23475;DHT22;11910;52.086;21.066;2023-10-19T00:45:58;2.50;99.90
23475;DHT22;11910;52.086;21.066;2023-10-19T00:48:23;2.50;99.90
23475;DHT22;11910;52.086;21.066;2023-10-19T00:50:52;2.60;99.90
23475;DHT22;11910;52.086;21.066;2023-10-19T00:53:19;2.60;99.90
23475;DHT22;11910;52.086;21.066;2023-10-19T00:55:45;2.50;99.90
23475;DHT22;11910;52.086;21.066;2023-10-19T00:58:11;2.40;99.90
23475;DHT22;11910;52.086;21.066;2023-10-19T01:00:43;2.40;99.90
23475;DHT22;11910;52.086;21.066;2023-10-19T01:03:10;2.30;99.90
23475;DHT22;11910;52.086;21.066;2023-10-19T01:05:35;2.30;99.90
23475;DHT22;11910;52.086;21.066;2023-10-19T01:08:01;2.30;99.90
23475;DHT22;11910;52.086;21.066;2023-10-19T01:10:28;2.30;99.90
23475;DHT22;11910;52.086;21.066;2023-10-19T01:12:53;2.30;99.90
23475;DHT22;11910;52.086;21.066;2023-10-19T01:15:21;2.40;99.90
23475;DHT22;11910;52.086;21.066;2023-10-19T01:17:55;2.40;99.90
23475;DHT22;11910;52.086;21.066;2023-10-19T01:20:24;2.40;99.90
23475;DHT22;11910;52.086;21.066;2023-10-19T01:25:46;2.50;99.90
23475;DHT22;11910;52.086;21.066;2023-10-19T01:28:21;2.60;99.90
23475;DHT22;11910;52.086;21.066;2023-10-19T01:30:51;2.60;99.90
23475;DHT22;11910;52.086;21.066;2023-10-19T01:33:20;2.50;99.90
23475;DHT22;11910;52.086;21.066;2023-10-19T01:35:45;2.50;99.90
23475;DHT22;11910;52.086;21.066;2023-10-19T01:38:30;2.40;99.90
23475;DHT22;11910;52.086;21.066;2023-10-19T01:40:59;2.50;99.90
23475;DHT22;11910;52.086;21.066;2023-10-19T01:43:25;2.60;99.90
23475;DHT22;11910;52.086;21.066;2023-10-19T01:45:53;2.60;99.90
23475;DHT22;11910;52.086;21.066;2023-10-19T01:48:22;2.50;99.90
23475;DHT22;11910;52.086;21.066;2023-10-19T01:50:53;2.50;99.90
23475;DHT22;11910;52.086;21.066;2023-10-19T01:53:18;2.40;99.90
23475;DHT22;11910;52.086;21.066;2023-10-19T01:55:46;2.40;99.90
23475;DHT22;11910;52.086;21.066;2023-10-19T01:58:13;2.40;99.90
23475;DHT22;11910;52.086;21.066;2023-10-19T02:00:40;2.40;99.90
23475;DHT22;11910;52.086;21.066;2023-10-19T02:03:08;2.30;99.90
23475;DHT22;11910;52.086;21.066;2023-10-19T02:05:34;2.40;99.90
23475;DHT22;11910;52.086;21.066;2023-10-19T02:08:07;2.40;99.90
23475;DHT22;11910;52.086;21.066;2023-10-19T02:10:36;2.50;99.90
23475;DHT22;11910;52.086;21.066;2023-10-19T02:13:07;2.40;99.90
23475;DHT22;11910;52.086;21.066;2023-10-19T02:15:34;2.40;99.90
23475;DHT22;11910;52.086;21.066;2023-10-19T02:18:03;2.30;99.90
23475;DHT22;11910;52.086;21.066;2023-10-19T02:20:28;2.20;99.90
23475;DHT22;11910;52.086;21.066;2023-10-19T02:22:57;2.20;99.90
23475;DHT22;11910;52.086;21.066;2023-10-19T02:25:23;2.10;99.90
23475;DHT22;11910;52.086;21.066;2023-10-19T02:27:50;2.10;99.90
23475;DHT22;11910;52.086;21.066;2023-10-19T02:30:17;2.10;99.90
23475;DHT22;11910;52.086;21.066;2023-10-19T02:32:43;2.20;99.90
23475;DHT22;11910;52.086;21.066;2023-10-19T02:35:09;2.20;99.90
23475;DHT22;11910;52.086;21.066;2023-10-19T02:37:34;2.10;99.90
23475;DHT22;11910;52.086;21.066;2023-10-19T02:40:00;2.10;99.90
23475;DHT22;11910;52.086;21.066;2023-10-19T02:42:25;2.10;99.90
23475;DHT22;11910;52.086;21.066;2023-10-19T02:44:51;2.10;99.90
23475;DHT22;11910;52.086;21.066;2023-10-19T02:47:16;2.10;99.90
23475;DHT22;11910;52.086;21.066;2023-10-19T02:49:42;2.20;99.90
23475;DHT22;11910;52.086;21.066;2023-10-19T02:52:08;2.10;99.90
23475;DHT22;11910;52.086;21.066;2023-10-19T02:54:35;2.00;99.90
23475;DHT22;11910;52.086;21.066;2023-10-19T02:57:01;2.00;99.90
23475;DHT22;11910;52.086;21.066;2023-10-19T02:59:28;2.00;99.90
23475;DHT22;11910;52.086;21.066;2023-10-19T03:01:58;2.00;99.90
23475;DHT22;11910;52.086;21.066;2023-10-19T03:04:31;2.00;99.90
23475;DHT22;11910;52.086;21.066;2023-10-19T03:07:01;2.00;99.90
23475;DHT22;11910;52.086;21.066;2023-10-19T03:09:28;2.00;99.90
23475;DHT22;11910;52.086;21.066;2023-10-19T03:11:55;2.00;99.90
23475;DHT22;11910;52.086;21.066;2023-10-19T03:14:27;2.00;99.90
23475;DHT22;11910;52.086;21.066;2023-10-19T03:16:53;2.10;99.90
23475;DHT22;11910;52.086;21.066;2023-10-19T03:19:21;2.10;99.90
23475;DHT22;11910;52.086;21.066;2023-10-19T03:21:46;2.10;99.90
23475;DHT22;11910;52.086;21.066;2023-10-19T03:24:15;2.10;99.90
23475;DHT22;11910;52.086;21.066;2023-10-19T03:27:00;2.10;99.90
23475;DHT22;11910;52.086;21.066;2023-10-19T03:29:25;2.10;99.90
23475;DHT22;11910;52.086;21.066;2023-10-19T03:31:56;2.10;99.90
23475;DHT22;11910;52.086;21.066;2023-10-19T03:34:22;2.00;99.90
23475;DHT22;11910;52.086;21.066;2023-10-19T03:36:49;2.00;99.90
23475;DHT22;11910;52.086;21.066;2023-10-19T03:39:16;2.00;99.90
23475;DHT22;11910;52.086;21.066;2023-10-19T03:41:43;2.00;99.90
23475;DHT22;11910;52.086;21.066;2023-10-19T03:44:13;1.90;99.90
23475;DHT22;11910;52.086;21.066;2023-10-19T03:46:45;1.90;99.90
23475;DHT22;11910;52.086;21.066;2023-10-19T03:49:29;1.90;99.90
23475;DHT22;11910;52.086;21.066;2023-10-19T03:52:04;1.80;99.90
23475;DHT22;11910;52.086;21.066;2023-10-19T03:54:30;1.90;99.90
23475;DHT22;11910;52.086;21.066;2023-10-19T03:56:58;1.80;99.90
23475;DHT22;11910;52.086;21.066;2023-10-19T03:59:27;1.90;99.90
23475;DHT22;11910;52.086;21.066;2023-10-19T04:01:59;1.90;99.90
23475;DHT22;11910;52.086;21.066;2023-10-19T04:04:25;2.00;99.90
23475;DHT22;11910;52.086;21.066;2023-10-19T04:06:51;2.00;99.90
23475;DHT22;11910;52.086;21.066;2023-10-19T04:09:23;1.90;99.90
23475;DHT22;11910;52.086;21.066;2023-10-19T04:11:48;1.80;99.90
23475;DHT22;11910;52.086;21.066;2023-10-19T04:14:15;1.80;99.90
23475;DHT22;11910;52.086;21.066;2023-10-19T04:16:41;1.80;99.90
23475;DHT22;11910;52.086;21.066;2023-10-19T04:19:09;1.90;99.90
23475;DHT22;11910;52.086;21.066;2023-10-19T04:21:35;2.00;99.90
23475;DHT22;11910;52.086;21.066;2023-10-19T04:24:07;2.00;99.90
23475;DHT22;11910;52.086;21.066;2023-10-19T04:26:33;2.10;99.90
23475;DHT22;11910;52.086;21.066;2023-10-19T04:29:02;2.10;99.90
23475;DHT22;11910;52.086;21.066;2023-10-19T04:31:35;2.10;99.90
23475;DHT22;11910;52.086;21.066;2023-10-19T04:34:03;2.20;99.90
23475;DHT22;11910;52.086;21.066;2023-10-19T04:36:35;2.20;99.90
23475;DHT22;11910;52.086;21.066;2023-10-19T04:39:01;2.30;99.90
23475;DHT22;11910;52.086;21.066;2023-10-19T04:41:27;2.30;99.90
23475;DHT22;11910;52.086;21.066;2023-10-19T04:43:53;2.30;99.90
23475;DHT22;11910;52.086;21.066;2023-10-19T04:46:19;2.40;99.90
23475;DHT22;11910;52.086;21.066;2023-10-19T04:48:45;2.40;99.90
23475;DHT22;11910;52.086;21.066;2023-10-19T04:51:11;2.40;99.90
23475;DHT22;11910;52.086;21.066;2023-10-19T04:53:37;2.30;99.90
23475;DHT22;11910;52.086;21.066;2023-10-19T04:56:03;2.30;99.90
23475;DHT22;11910;52.086;21.066;2023-10-19T04:58:30;2.30;99.90
23475;DHT22;11910;52.086;21.066;2023-10-19T05:00:55;2.30;99.90
23475;DHT22;11910;52.086;21.066;2023-10-19T05:03:23;2.40;99.90
23475;DHT22;11910;52.086;21.066;2023-10-19T05:05:49;2.40;99.90
23475;DHT22;11910;52.086;21.066;2023-10-19T05:08:14;2.40;99.90
23475;DHT22;11910;52.086;21.066;2023-10-19T05:10:40;2.40;99.90
23475;DHT22;11910;52.086;21.066;2023-10-19T05:13:07;2.50;99.90
23475;DHT22;11910;52.086;21.066;2023-10-19T05:15:32;2.40;99.90
23475;DHT22;11910;52.086;21.066;2023-10-19T05:17:59;2.30;99.90
23475;DHT22;11910;52.086;21.066;2023-10-19T05:20:25;2.40;99.90
23475;DHT22;11910;52.086;21.066;2023-10-19T05:22:51;2.40;99.90
23475;DHT22;11910;52.086;21.066;2023-10-19T05:25:16;2.30;99.90
23475;DHT22;11910;52.086;21.066;2023-10-19T05:27:42;2.20;99.90
23475;DHT22;11910;52.086;21.066;2023-10-19T05:30:07;2.20;99.90
23475;DHT22;11910;52.086;21.066;2023-10-19T05:32:35;2.20;99.90
23475;DHT22;11910;52.086;21.066;2023-10-19T05:35:01;2.20;99.90
23475;DHT22;11910;52.086;21.066;2023-10-19T05:37:29;2.20;99.90
23475;DHT22;11910;52.086;21.066;2023-10-19T05:39:55;2.30;99.90
23475;DHT22;11910;52.086;21.066;2023-10-19T05:42:20;2.40;99.90
23475;DHT22;11910;52.086;21.066;2023-10-19T05:44:47;2.40;99.90
23475;DHT22;11910;52.086;21.066;2023-10-19T05:47:12;2.60;99.90
23475;DHT22;11910;52.086;21.066;2023-10-19T05:49:38;2.70;99.90
23475;DHT22;11910;52.086;21.066;2023-10-19T05:52:03;2.90;99.90
23475;DHT22;11910;52.086;21.066;2023-10-19T05:54:29;3.00;99.90
23475;DHT22;11910;52.086;21.066;2023-10-19T05:56:55;2.90;99.90
23475;DHT22;11910;52.086;21.066;2023-10-19T05:59:21;3.00;99.90
23475;DHT22;11910;52.086;21.066;2023-10-19T06:01:47;3.00;99.90
23475;DHT22;11910;52.086;21.066;2023-10-19T06:04:13;3.10;99.90
23475;DHT22;11910;52.086;21.066;2023-10-19T06:06:38;3.10;99.90
23475;DHT22;11910;52.086;21.066;2023-10-19T06:09:07;3.20;99.90
23475;DHT22;11910;52.086;21.066;2023-10-19T06:11:36;3.10;99.90
23475;DHT22;11910;52.086;21.066;2023-10-19T06:14:08;3.10;99.90
23475;DHT22;11910;52.086;21.066;2023-10-19T06:16:33;3.10;99.90
23475;DHT22;11910;52.086;21.066;2023-10-19T06:18:59;3.10;99.90
23475;DHT22;11910;52.086;21.066;2023-10-19T06:21:25;3.10;99.90
23475;DHT22;11910;52.086;21.066;2023-10-19T06:23:50;3.00;99.90
23475;DHT22;11910;52.086;21.066;2023-10-19T06:26:18;3.10;99.90
23475;DHT22;11910;52.086;21.066;2023-10-19T06:28:43;3.20;99.90
23475;DHT22;11910;52.086;21.066;2023-10-19T06:31:09;3.30;99.90
23475;DHT22;11910;52.086;21.066;2023-10-19T06:33:34;3.50;99.90
23475;DHT22;11910;52.086;21.066;2023-10-19T06:36:01;3.50;99.90
23475;DHT22;11910;52.086;21.066;2023-10-19T06:38:31;3.60;99.90
23475;DHT22;11910;52.086;21.066;2023-10-19T06:40:59;3.70;99.90
23475;DHT22;11910;52.086;21.066;2023-10-19T06:43:25;3.80;99.90
23475;DHT22;11910;52.086;21.066;2023-10-19T06:45:54;3.80;99.90
23475;DHT22;11910;52.086;21.066;2023-10-19T06:48:20;4.00;99.90
23475;DHT22;11910;52.086;21.066;2023-10-19T06:50:46;4.20;99.90
23475;DHT22;11910;52.086;21.066;2023-10-19T06:53:11;4.30;99.90
23475;DHT22;11910;52.086;21.066;2023-10-19T06:55:37;4.40;99.90
23475;DHT22;11910;52.086;21.066;2023-10-19T06:58:02;4.50;99.90
23475;DHT22;11910;52.086;21.066;2023-10-19T07:00:30;4.70;99.90
23475;DHT22;11910;52.086;21.066;2023-10-19T07:02:56;4.80;99.90
23475;DHT22;11910;52.086;21.066;2023-10-19T07:05:22;4.90;99.90
23475;DHT22;11910;52.086;21.066;2023-10-19T07:07:49;4.90;99.90
23475;DHT22;11910;52.086;21.066;2023-10-19T07:10:17;5.10;99.90
23475;DHT22;11910;52.086;21.066;2023-10-19T07:13:01;5.30;99.90
23475;DHT22;11910;52.086;21.066;2023-10-19T07:15:27;5.60;99.90
23475;DHT22;11910;52.086;21.066;2023-10-19T07:17:57;5.80;99.90
23475;DHT22;11910;52.086;21.066;2023-10-19T07:20:23;5.90;99.90
23475;DHT22;11910;52.086;21.066;2023-10-19T07:22:59;6.10;99.90
23475;DHT22;11910;52.086;21.066;2023-10-19T07:25:50;6.20;99.90
23475;DHT22;11910;52.086;21.066;2023-10-19T07:28:24;6.30;99.90
23475;DHT22;11910;52.086;21.066;2023-10-19T07:30:51;6.40;99.90
23475;DHT22;11910;52.086;21.066;2023-10-19T07:33:17;6.60;99.90
23475;DHT22;11910;52.086;21.066;2023-10-19T07:35:44;6.70;99.90
23475;DHT22;11910;52.086;21.066;2023-10-19T07:38:12;6.90;99.90
23475;DHT22;11910;52.086;21.066;2023-10-19T07:40:38;7.00;99.90
23475;DHT22;11910;52.086;21.066;2023-10-19T07:43:04;7.20;99.90
23475;DHT22;11910;52.086;21.066;2023-10-19T07:45:29;7.30;99.90
23475;DHT22;11910;52.086;21.066;2023-10-19T07:47:56;7.50;99.90
23475;DHT22;11910;52.086;21.066;2023-10-19T07:50:22;7.60;99.90
23475;DHT22;11910;52.086;21.066;2023-10-19T07:52:49;7.70;99.90
23475;DHT22;11910;52.086;21.066;2023-10-19T07:55:15;7.80;99.90
23475;DHT22;11910;52.086;21.066;2023-10-19T07:57:41;7.90;99.90
23475;DHT22;11910;52.086;21.066;2023-10-19T08:00:07;8.00;99.90
23475;DHT22;11910;52.086;21.066;2023-10-19T08:02:34;8.10;99.90
23475;DHT22;11910;52.086;21.066;2023-10-19T08:05:00;8.00;99.90
23475;DHT22;11910;52.086;21.066;2023-10-19T08:07:27;8.10;99.90
23475;DHT22;11910;52.086;21.066;2023-10-19T08:09:53;8.00;99.90
23475;DHT22;11910;52.086;21.066;2023-10-19T08:12:20;8.20;99.90
23475;DHT22;11910;52.086;21.066;2023-10-19T08:14:48;8.30;99.90
23475;DHT22;11910;52.086;21.066;2023-10-19T08:17:14;8.50;99.90
23475;DHT22;11910;52.086;21.066;2023-10-19T08:19:39;8.70;99.90
23475;DHT22;11910;52.086;21.066;2023-10-19T08:22:05;8.80;99.90
23475;DHT22;11910;52.086;21.066;2023-10-19T08:24:30;8.90;99.90
23475;DHT22;11910;52.086;21.066;2023-10-19T08:27:00;9.00;99.90
23475;DHT22;11910;52.086;21.066;2023-10-19T08:29:26;9.10;99.90
23475;DHT22;11910;52.086;21.066;2023-10-19T08:31:51;9.20;99.90
23475;DHT22;11910;52.086;21.066;2023-10-19T08:34:17;9.20;99.90
23475;DHT22;11910;52.086;21.066;2023-10-19T08:36:42;9.30;99.90
23475;DHT22;11910;52.086;21.066;2023-10-19T08:39:08;9.30;99.90
23475;DHT22;11910;52.086;21.066;2023-10-19T08:41:34;9.50;99.90
23475;DHT22;11910;52.086;21.066;2023-10-19T08:44:06;9.60;99.90
23475;DHT22;11910;52.086;21.066;2023-10-19T08:46:41;9.70;99.90
23475;DHT22;11910;52.086;21.066;2023-10-19T08:49:11;9.80;99.90
23475;DHT22;11910;52.086;21.066;2023-10-19T08:51:38;9.90;99.90
23475;DHT22;11910;52.086;21.066;2023-10-19T08:54:04;10.10;99.90
23475;DHT22;11910;52.086;21.066;2023-10-19T08:56:31;10.20;99.90
23475;DHT22;11910;52.086;21.066;2023-10-19T08:58:58;10.20;99.90
23475;DHT22;11910;52.086;21.066;2023-10-19T09:01:23;10.30;99.90
23475;DHT22;11910;52.086;21.066;2023-10-19T09:03:50;10.10;99.90
23475;DHT22;11910;52.086;21.066;2023-10-19T09:06:15;10.30;99.90
23475;DHT22;11910;52.086;21.066;2023-10-19T09:08:41;10.40;99.90
23475;DHT22;11910;52.086;21.066;2023-10-19T09:11:07;10.50;99.90
23475;DHT22;11910;52.086;21.066;2023-10-19T09:13:48;10.80;99.90
23475;DHT22;11910;52.086;21.066;2023-10-19T09:16:15;10.90;99.90
23475;DHT22;11910;52.086;21.066;2023-10-19T09:18:41;11.20;99.90
23475;DHT22;11910;52.086;21.066;2023-10-19T09:21:07;11.50;99.90
23475;DHT22;11910;52.086;21.066;2023-10-19T09:23:33;11.70;99.90
23475;DHT22;11910;52.086;21.066;2023-10-19T09:25:59;11.90;99.90
23475;DHT22;11910;52.086;21.066;2023-10-19T09:28:36;12.00;99.90
23475;DHT22;11910;52.086;21.066;2023-10-19T09:31:03;12.10;99.90
23475;DHT22;11910;52.086;21.066;2023-10-19T09:33:28;12.10;99.90
23475;DHT22;11910;52.086;21.066;2023-10-19T09:35:56;12.30;99.90
23475;DHT22;11910;52.086;21.066;2023-10-19T09:38:26;12.40;99.90
23475;DHT22;11910;52.086;21.066;2023-10-19T09:40:52;12.10;99.90
23475;DHT22;11910;52.086;21.066;2023-10-19T09:45:57;12.10;99.90
23475;DHT22;11910;52.086;21.066;2023-10-19T09:48:25;12.10;99.90
23475;DHT22;11910;52.086;21.066;2023-10-19T09:50:53;12.10;99.90
23475;DHT22;11910;52.086;21.066;2023-10-19T09:53:29;12.00;99.90
23475;DHT22;11910;52.086;21.066;2023-10-19T09:55:57;12.10;99.90
23475;DHT22;11910;52.086;21.066;2023-10-19T09:58:45;12.20;99.90
23475;DHT22;11910;52.086;21.066;2023-10-19T10:01:09;12.50;99.90
23475;DHT22;11910;52.086;21.066;2023-10-19T10:03:45;13.00;99.90
23475;DHT22;11910;52.086;21.066;2023-10-19T10:06:11;13.30;99.90
23475;DHT22;11910;52.086;21.066;2023-10-19T10:08:40;13.30;99.90
23475;DHT22;11910;52.086;21.066;2023-10-19T10:11:16;12.90;99.90
23475;DHT22;11910;52.086;21.066;2023-10-19T10:13:42;12.80;99.90
23475;DHT22;11910;52.086;21.066;2023-10-19T10:16:08;12.70;99.90
23475;DHT22;11910;52.086;21.066;2023-10-19T10:18:34;12.50;99.90
23475;DHT22;11910;52.086;21.066;2023-10-19T10:23:39;12.30;99.90
23475;DHT22;11910;52.086;21.066;2023-10-19T10:26:05;12.30;99.90
23475;DHT22;11910;52.086;21.066;2023-10-19T10:28:33;12.40;99.90
23475;DHT22;11910;52.086;21.066;2023-10-19T10:31:08;12.50;99.90
23475;DHT22;11910;52.086;21.066;2023-10-19T10:33:37;12.70;99.90
23475;DHT22;11910;52.086;21.066;2023-10-19T10:36:05;12.70;99.90
23475;DHT22;11910;52.086;21.066;2023-10-19T10:38:34;12.70;99.90
23475;DHT22;11910;52.086;21.066;2023-10-19T10:41:00;12.80;99.90
23475;DHT22;11910;52.086;21.066;2023-10-19T10:43:27;12.90;99.90
23475;DHT22;11910;52.086;21.066;2023-10-19T10:46:02;13.10;99.90
23475;DHT22;11910;52.086;21.066;2023-10-19T10:48:28;13.20;99.90
23475;DHT22;11910;52.086;21.066;2023-10-19T10:50:53;13.30;99.90
23475;DHT22;11910;52.086;21.066;2023-10-19T10:53:19;13.20;99.90
23475;DHT22;11910;52.086;21.066;2023-10-19T10:55:44;13.10;99.90
23475;DHT22;11910;52.086;21.066;2023-10-19T10:58:19;13.10;99.90
23475;DHT22;11910;52.086;21.066;2023-10-19T11:00:45;12.90;99.90
23475;DHT22;11910;52.086;21.066;2023-10-19T11:03:17;12.80;99.90
23475;DHT22;11910;52.086;21.066;2023-10-19T11:05:42;12.70;99.90
23475;DHT22;11910;52.086;21.066;2023-10-19T11:08:11;12.80;99.90
23475;DHT22;11910;52.086;21.066;2023-10-19T11:10:42;12.70;99.90
23475;DHT22;11910;52.086;21.066;2023-10-19T11:13:08;12.70;99.90
23475;DHT22;11910;52.086;21.066;2023-10-19T11:15:34;12.60;99.90
23475;DHT22;11910;52.086;21.066;2023-10-19T11:18:00;12.70;99.90
23475;DHT22;11910;52.086;21.066;2023-10-19T11:20:26;12.60;99.90
23475;DHT22;11910;52.086;21.066;2023-10-19T11:22:56;12.60;99.90
23475;DHT22;11910;52.086;21.066;2023-10-19T11:25:22;12.70;99.90
23475;DHT22;11910;52.086;21.066;2023-10-19T11:27:48;12.70;99.90
23475;DHT22;11910;52.086;21.066;2023-10-19T11:30:15;12.70;99.90
23475;DHT22;11910;52.086;21.066;2023-10-19T11:32:47;12.80;99.90
23475;DHT22;11910;52.086;21.066;2023-10-19T11:35:13;12.80;99.90
23475;DHT22;11910;52.086;21.066;2023-10-19T11:37:51;12.70;99.90
23475;DHT22;11910;52.086;21.066;2023-10-19T11:40:21;12.50;99.90
23475;DHT22;11910;52.086;21.066;2023-10-19T11:42:47;12.30;99.90
23475;DHT22;11910;52.086;21.066;2023-10-19T11:45:12;12.30;99.90
23475;DHT22;11910;52.086;21.066;2023-10-19T11:47:38;12.10;99.90
23475;DHT22;11910;52.086;21.066;2023-10-19T11:50:04;12.10;99.90
23475;DHT22;11910;52.086;21.066;2023-10-19T11:52:29;12.00;99.90
23475;DHT22;11910;52.086;21.066;2023-10-19T11:54:56;11.90;99.90
23475;DHT22;11910;52.086;21.066;2023-10-19T11:57:21;11.90;99.90
23475;DHT22;11910;52.086;21.066;2023-10-19T11:59:47;11.90;99.90
23475;DHT22;11910;52.086;21.066;2023-10-19T12:02:20;11.90;99.90
23475;DHT22;11910;52.086;21.066;2023-10-19T12:04:46;11.80;99.90
23475;DHT22;11910;52.086;21.066;2023-10-19T12:07:12;11.80;99.90
23475;DHT22;11910;52.086;21.066;2023-10-19T12:09:37;11.70;99.90
23475;DHT22;11910;52.086;21.066;2023-10-19T12:12:06;11.60;99.90
23475;DHT22;11910;52.086;21.066;2023-10-19T12:14:32;11.60;99.90
23475;DHT22;11910;52.086;21.066;2023-10-19T12:17:01;11.60;99.90
23475;DHT22;11910;52.086;21.066;2023-10-19T12:19:29;11.50;99.90
23475;DHT22;11910;52.086;21.066;2023-10-19T12:21:55;11.50;99.90
23475;DHT22;11910;52.086;21.066;2023-10-19T12:24:20;11.50;99.90
23475;DHT22;11910;52.086;21.066;2023-10-19T12:26:46;11.40;99.90
23475;DHT22;11910;52.086;21.066;2023-10-19T12:29:12;11.40;99.90
23475;DHT22;11910;52.086;21.066;2023-10-19T12:31:40;11.40;99.90
23475;DHT22;11910;52.086;21.066;2023-10-19T12:34:06;11.40;99.90
23475;DHT22;11910;52.086;21.066;2023-10-19T12:36:32;11.50;99.90
23475;DHT22;11910;52.086;21.066;2023-10-19T12:38:57;11.50;99.90
23475;DHT22;11910;52.086;21.066;2023-10-19T12:41:23;11.50;99.90
23475;DHT22;11910;52.086;21.066;2023-10-19T12:43:49;11.50;99.90
23475;DHT22;11910;52.086;21.066;2023-10-19T12:46:22;11.50;99.90
23475;DHT22;11910;52.086;21.066;2023-10-19T12:48:50;11.50;99.90
23475;DHT22;11910;52.086;21.066;2023-10-19T12:51:16;11.50;99.90
23475;DHT22;11910;52.086;21.066;2023-10-19T12:53:48;11.50;99.90
23475;DHT22;11910;52.086;21.066;2023-10-19T12:56:14;11.50;99.90
23475;DHT22;11910;52.086;21.066;2023-10-19T12:58:39;11.50;99.90
23475;DHT22;11910;52.086;21.066;2023-10-19T13:01:06;11.40;99.90
23475;DHT22;11910;52.086;21.066;2023-10-19T13:03:32;11.40;99.90
23475;DHT22;11910;52.086;21.066;2023-10-19T13:05:58;11.50;99.90
23475;DHT22;11910;52.086;21.066;2023-10-19T13:08:23;11.50;99.90
23475;DHT22;11910;52.086;21.066;2023-10-19T13:10:52;11.50;99.90
23475;DHT22;11910;52.086;21.066;2023-10-19T13:13:18;11.50;99.90
23475;DHT22;11910;52.086;21.066;2023-10-19T13:15:44;11.50;99.90
23475;DHT22;11910;52.086;21.066;2023-10-19T13:18:10;11.50;99.90
23475;DHT22;11910;52.086;21.066;2023-10-19T13:20:39;11.50;99.90
23475;DHT22;11910;52.086;21.066;2023-10-19T13:23:06;11.50;99.90
23475;DHT22;11910;52.086;21.066;2023-10-19T13:25:32;11.50;99.90
23475;DHT22;11910;52.086;21.066;2023-10-19T13:28:05;11.50;99.90
23475;DHT22;11910;52.086;21.066;2023-10-19T13:30:40;11.50;99.90
23475;DHT22;11910;52.086;21.066;2023-10-19T13:33:07;11.50;99.90
23475;DHT22;11910;52.086;21.066;2023-10-19T13:35:37;11.50;99.90
23475;DHT22;11910;52.086;21.066;2023-10-19T13:38:04;11.50;99.90
23475;DHT22;11910;52.086;21.066;2023-10-19T13:40:30;11.50;99.90
23475;DHT22;11910;52.086;21.066;2023-10-19T13:42:56;11.50;99.90
23475;DHT22;11910;52.086;21.066;2023-10-19T13:45:21;11.60;99.90
23475;DHT22;11910;52.086;21.066;2023-10-19T13:47:47;11.50;99.90
23475;DHT22;11910;52.086;21.066;2023-10-19T13:50:12;11.60;99.90
23475;DHT22;11910;52.086;21.066;2023-10-19T13:52:38;11.60;99.90
23475;DHT22;11910;52.086;21.066;2023-10-19T13:55:05;11.60;99.90
23475;DHT22;11910;52.086;21.066;2023-10-19T13:57:32;11.60;99.90
23475;DHT22;11910;52.086;21.066;2023-10-19T13:59:58;11.60;99.90
23475;DHT22;11910;52.086;21.066;2023-10-19T14:02:23;11.70;99.90
23475;DHT22;11910;52.086;21.066;2023-10-19T14:04:50;11.70;99.90
23475;DHT22;11910;52.086;21.066;2023-10-19T14:07:17;11.70;99.90
23475;DHT22;11910;52.086;21.066;2023-10-19T14:09:42;11.70;99.90
23475;DHT22;11910;52.086;21.066;2023-10-19T14:12:08;11.70;99.90
23475;DHT22;11910;52.086;21.066;2023-10-19T14:14:34;11.70;99.90
23475;DHT22;11910;52.086;21.066;2023-10-19T14:17:00;11.60;99.90
23475;DHT22;11910;52.086;21.066;2023-10-19T14:19:26;11.60;99.90
23475;DHT22;11910;52.086;21.066;2023-10-19T14:21:51;11.60;99.90
23475;DHT22;11910;52.086;21.066;2023-10-19T14:24:17;11.60;99.90
23475;DHT22;11910;52.086;21.066;2023-10-19T14:26:45;11.60;99.90
23475;DHT22;11910;52.086;21.066;2023-10-19T14:29:12;11.50;99.90
23475;DHT22;11910;52.086;21.066;2023-10-19T14:31:39;11.50;99.90
23475;DHT22;11910;52.086;21.066;2023-10-19T14:34:04;11.50;99.90
23475;DHT22;11910;52.086;21.066;2023-10-19T14:36:30;11.50;99.90
23475;DHT22;11910;52.086;21.066;2023-10-19T14:38:56;11.50;99.90
23475;DHT22;11910;52.086;21.066;2023-10-19T14:41:21;11.50;99.90
23475;DHT22;11910;52.086;21.066;2023-10-19T14:43:47;11.40;99.90
23475;DHT22;11910;52.086;21.066;2023-10-19T14:46:13;11.40;99.90
23475;DHT22;11910;52.086;21.066;2023-10-19T14:48:38;11.40;99.90
23475;DHT22;11910;52.086;21.066;2023-10-19T14:51:04;11.40;99.90
23475;DHT22;11910;52.086;21.066;2023-10-19T14:53:30;11.40;99.90
23475;DHT22;11910;52.086;21.066;2023-10-19T14:55:56;11.30;99.90
23475;DHT22;11910;52.086;21.066;2023-10-19T14:58:26;11.30;99.90
23475;DHT22;11910;52.086;21.066;2023-10-19T15:00:51;11.20;99.90
23475;DHT22;11910;52.086;21.066;2023-10-19T15:03:20;11.30;99.90
23475;DHT22;11910;52.086;21.066;2023-10-19T15:05:49;11.30;99.90
23475;DHT22;11910;52.086;21.066;2023-10-19T15:08:15;11.20;99.90
23475;DHT22;11910;52.086;21.066;2023-10-19T15:10:41;11.20;99.90
23475;DHT22;11910;52.086;21.066;2023-10-19T15:13:07;11.20;99.90
23475;DHT22;11910;52.086;21.066;2023-10-19T15:15:32;11.20;99.90
23475;DHT22;11910;52.086;21.066;2023-10-19T15:17:58;11.20;99.90
23475;DHT22;11910;52.086;21.066;2023-10-19T15:20:25;11.20;99.90
23475;DHT22;11910;52.086;21.066;2023-10-19T15:22:51;11.10;99.90
23475;DHT22;11910;52.086;21.066;2023-10-19T15:25:16;11.20;99.90
23475;DHT22;11910;52.086;21.066;2023-10-19T15:27:45;11.20;99.90
23475;DHT22;11910;52.086;21.066;2023-10-19T15:30:12;11.20;99.90
23475;DHT22;11910;52.086;21.066;2023-10-19T15:32:37;11.10;99.90
23475;DHT22;11910;52.086;21.066;2023-10-19T15:35:03;11.10;99.90